createdAt,value
2018-08-30T00:01:31.501Z,0.0
2018-08-30T00:11:45.713Z,0.0
2018-08-30T00:21:59.770Z,0.0
2018-08-30T00:32:14.193Z,0.0
2018-08-30T00:42:28.074Z,0.0
2018-08-30T00:52:42.135Z,0.0
2018-08-30T01:02:56.692Z,0.0
2018-08-30T01:13:10.849Z,0.0
2018-08-30T01:23:24.829Z,0.0
2018-08-30T01:33:39.122Z,0.0
2018-08-30T01:43:53.179Z,0.0
2018-08-30T01:54:07.465Z,0.0
2018-08-30T02:04:43.927Z,0.0
2018-08-30T02:14:57.887Z,0.0
2018-08-30T02:25:12.307Z,0.0
2018-08-30T02:35:27.654Z,0.0
2018-08-30T02:45:45.332Z,0.0
2018-08-30T02:56:29.605Z,0.0
2018-08-30T03:06:41.832Z,0.0
2018-08-30T03:16:56.280Z,0.0
2018-08-30T03:27:41.062Z,0.0
2018-08-30T03:37:55.321Z,0.0
2018-08-30T03:48:09.548Z,0.0
2018-08-30T03:58:54.121Z,0.0
2018-08-30T04:09:38.831Z,0.0
2018-08-30T04:19:53.018Z,0.0
2018-08-30T04:40:24.941Z,0.0
2018-08-30T04:51:07.520Z,5.0
2018-08-30T05:01:21.852Z,5.0
2018-08-30T05:11:36.459Z,15.0
2018-08-30T05:32:57.793Z,55.0
2018-08-30T05:43:16.956Z,40.0
2018-08-30T05:53:30.923Z,50.0
2018-08-30T06:04:15.708Z,60.0
2018-08-30T06:15:36.932Z,90.0
2018-08-30T06:25:51.688Z,120.0
2018-08-30T06:36:35.432Z,135.0
2018-08-30T06:46:49.925Z,95.0
2018-08-30T06:57:37.562Z,115.0
2018-08-30T07:08:22.229Z,115.0
2018-08-30T07:18:36.590Z,135.0
2018-08-30T07:28:50.551Z,155.0
2018-08-30T07:39:06.048Z,225.0
2018-08-30T07:49:20.737Z,605.0
2018-08-30T07:59:40.715Z,515.0
2018-08-30T08:09:52.999Z,810.0
2018-08-30T08:20:15.442Z,1190.0
2018-08-30T08:30:29.437Z,450.0
2018-08-30T08:40:43.552Z,590.0
2018-08-30T08:51:29.729Z,490.0
2018-08-30T09:02:14.793Z,1705.0
2018-08-30T09:12:29.159Z,325.0
2018-08-30T09:22:43.629Z,325.0
2018-08-30T09:32:57.597Z,520.0
2018-08-30T09:43:41.962Z,785.0
2018-08-30T09:54:26.670Z,315.0
2018-08-30T10:05:12.100Z,1940.0
2018-08-30T10:25:38.441Z,2135.0
2018-08-30T10:36:31.431Z,2035.0
2018-08-30T10:47:17.228Z,2310.0
2018-08-30T10:58:08.962Z,2225.0
2018-08-30T11:08:22.879Z,690.0
2018-08-30T11:18:36.733Z,2040.0
2018-08-30T11:28:51.340Z,565.0
2018-08-30T11:39:05.669Z,680.0
2018-08-30T11:49:18.167Z,910.0
2018-08-30T11:59:32.251Z,555.0
2018-08-30T12:09:46.298Z,55.0
2018-08-30T12:20:31.521Z,175.0
2018-08-30T12:31:16.128Z,245.0
2018-08-30T12:41:29.172Z,350.0
2018-08-30T12:52:17.153Z,140.0
2018-08-30T13:02:30.087Z,665.0
2018-08-30T13:12:42.219Z,370.0
2018-08-30T13:22:55.632Z,205.0
2018-08-30T13:33:39.132Z,310.0
2018-08-30T13:43:51.371Z,190.0
2018-08-30T13:54:03.674Z,110.0
2018-08-30T14:04:48.096Z,155.0
2018-08-30T14:14:59.739Z,200.0
2018-08-30T14:25:44.289Z,195.0
2018-08-30T14:35:58.010Z,150.0
2018-08-30T14:46:13.811Z,145.0
2018-08-30T14:56:27.477Z,140.0
2018-08-30T15:06:39.953Z,155.0
2018-08-30T15:16:54.160Z,170.0
2018-08-30T15:27:07.587Z,205.0
2018-08-30T15:37:21.373Z,155.0
2018-08-30T15:47:32.543Z,115.0
2018-08-30T16:08:00.256Z,255.0
2018-08-30T16:19:17.776Z,195.0
2018-08-30T16:30:04.912Z,190.0
2018-08-30T16:40:16.576Z,140.0
2018-08-30T16:50:27.877Z,40.0
2018-08-30T17:00:42.474Z,70.0
2018-08-30T17:10:54.683Z,65.0
2018-08-30T17:21:06.879Z,80.0
2018-08-30T17:31:19.976Z,55.0
2018-08-30T17:41:31.381Z,35.0
2018-08-30T17:52:16.238Z,10.0
2018-08-30T18:02:27.915Z,10.0
2018-08-30T18:12:40.017Z,10.0
2018-08-30T18:22:54.670Z,5.0
2018-08-30T18:33:08.851Z,0.0
2018-08-30T18:43:24.386Z,0.0
2018-08-30T18:53:37.746Z,0.0
2018-08-30T19:03:52.195Z,0.0
2018-08-30T19:14:07.042Z,0.0
2018-08-30T19:24:21.259Z,0.0
2018-08-30T19:34:34.697Z,0.0
2018-08-30T19:44:50.475Z,0.0
2018-08-30T19:55:35.855Z,0.0
2018-08-30T20:05:50.350Z,0.0
2018-08-30T20:16:03.956Z,0.0
2018-08-30T20:26:18.115Z,0.0
2018-08-30T20:36:31.235Z,0.0
2018-08-30T20:47:16.594Z,0.0
2018-08-30T20:57:30.392Z,0.0
2018-08-30T21:07:44.560Z,0.0
2018-08-30T21:17:56.174Z,0.0
2018-08-30T21:28:10.587Z,0.0
2018-08-30T21:38:24.608Z,0.0
2018-08-30T21:48:38.491Z,0.0
2018-08-30T21:58:52.797Z,0.0
2018-08-30T22:09:04.874Z,0.0
2018-08-30T22:19:18.392Z,0.0
2018-08-30T22:30:03.644Z,0.0
2018-08-30T22:40:47.945Z,0.0
2018-08-30T22:51:32.999Z,0.0
2018-08-30T23:01:47.263Z,0.0
2018-08-30T23:12:01.306Z,0.0
2018-08-30T23:22:15.268Z,0.0
2018-08-30T23:32:28.965Z,0.0
2018-08-30T23:42:43.146Z,0.0
2018-08-30T23:52:59.363Z,0.0
